NCAR-RAP Real-Time Weather Data

Output produced by METARs form (06 May 2021  17:01 UTC)
found at http://weather.rap.ucar.edu/surface/
 
KLVM 061653Z AUTO 07009KT 10SM CLR 13/01 A3021 RMK AO2 SLP219 T01330011
KLVM 061553Z AUTO 07008KT 10SM CLR 11/01 A3024 RMK AO2 SLP233 T01060011
KLVM 061453Z AUTO 00000KT 10SM CLR 07/00 A3026 RMK AO2 SLP246 T00670000 58002
KLVM 061353Z AUTO 31004KT 10SM CLR 03/M01 A3027 RMK AO2 SLP252 T00281011
KLVM 061253Z AUTO 30003KT 10SM CLR 00/M02 A3027 RMK AO2 SLP249 T00001022
KLVM 061153Z AUTO 00000KT 10SM CLR M01/M03 A3027 RMK AO2 SLP247 T10061028 10067 21017 57005
KLVM 061053Z AUTO 00000KT 10SM CLR M01/M03 A3028 RMK AO2 SLP254 T10111033
KLVM 060953Z AUTO 18003KT 10SM CLR 00/M03 A3028 RMK AO2 SLP255 T00001028
KLVM 060853Z AUTO 19004KT 10SM CLR 01/M02 A3029 RMK AO2 SLP253 T00111022 50002
KLVM 060753Z AUTO 13006KT 10SM CLR 04/M01 A3030 RMK AO2 SLP253 T00441011
KLVM 060653Z AUTO 12008KT 10SM CLR 04/M01 A3029 RMK AO2 SLP251 T00441011 401780006
KLVM 060553Z AUTO 10012KT 10SM CLR 07/M01 A3028 RMK AO2 SLP246 T00671011 10178 20067 50013
KLVM 060453Z AUTO 09012KT 10SM CLR 08/M01 A3028 RMK AO2 SLP247 T00781006
KLVM 060353Z AUTO 11012KT 10SM CLR 08/00 A3027 RMK AO2 SLP240 T00830000